Time;durP1;ratioP1;P1;durP2;ratioP2;P2;SDS_P1;SDS_P2;PMS_P1;PMS_P2;Temp;Humidity;BMP_temperature;BMP_pressure;BME280_temperature;BME280_humidity;BME280_pressure;Samples;Min_cycle;Max_cycle;Signal;HPM_P1;HPM_P2
2022/02/18 00:00:21;;;;;;;6.45;1.25;;;;;;;10.10;100.00;100086.16;5110690;28;20097;-74
2022/02/18 00:02:47;;;;;;;5.97;1.20;;;;;;;10.10;100.00;100088.09;5094829;28;20028;-75
2022/02/18 00:05:12;;;;;;;9.20;1.70;;;;;;;10.11;100.00;100076.69;5103137;28;20082;-75
2022/02/18 00:07:38;;;;;;;8.20;1.67;;;;;;;10.10;100.00;100065.91;5106534;28;20043;-75
2022/02/18 00:10:03;;;;;;;12.40;1.83;;;;;;;10.12;100.00;100058.13;5112747;28;20024;-75
2022/02/18 00:12:29;;;;;;;6.32;1.70;;;;;;;10.13;100.00;100056.97;5088747;28;20036;-75
2022/02/18 00:14:54;;;;;;;6.45;1.40;;;;;;;10.12;100.00;100055.34;5111611;28;20506;-75
2022/02/18 00:17:20;;;;;;;10.40;1.73;;;;;;;10.11;100.00;100050.91;5100443;28;20036;-75
2022/02/18 00:19:45;;;;;;;10.45;1.98;;;;;;;10.10;100.00;100055.63;5093751;28;20039;-75
2022/02/18 00:22:11;;;;;;;9.57;1.83;;;;;;;10.12;100.00;100052.56;5112519;28;20035;-75
2022/02/18 00:24:36;;;;;;;10.93;1.98;;;;;;;10.11;100.00;100056.44;5083211;28;20043;-75
2022/02/18 00:27:02;;;;;;;6.72;1.50;;;;;;;10.14;100.00;100053.06;5081041;28;20043;-75
2022/02/18 00:29:27;;;;;;;7.50;1.52;;;;;;;10.14;100.00;100044.75;5084223;27;20038;-74
2022/02/18 00:31:53;;;;;;;14.77;2.55;;;;;;;10.14;100.00;100041.97;5103573;27;20028;-75
2022/02/18 00:34:19;;;;;;;11.65;2.22;;;;;;;10.15;100.00;100041.66;5076159;28;20050;-75
2022/02/18 00:36:44;;;;;;;14.13;2.55;;;;;;;10.16;100.00;100037.75;5084987;28;20078;-74
2022/02/18 00:39:10;;;;;;;14.02;2.45;;;;;;;10.17;100.00;100033.88;5097787;28;20033;-75
2022/02/18 00:41:35;;;;;;;15.30;3.30;;;;;;;10.18;100.00;100026.38;5092293;28;20062;-75
2022/02/18 00:44:01;;;;;;;8.73;2.20;;;;;;;10.19;100.00;100016.91;5097374;28;20039;-75
2022/02/18 00:46:27;;;;;;;12.98;2.45;;;;;;;10.18;100.00;100015.28;5089701;28;22079;-75
2022/02/18 00:48:53;;;;;;;13.57;2.90;;;;;;;10.20;100.00;100007.47;5109506;28;20369;-74
2022/02/18 00:51:19;;;;;;;15.50;2.50;;;;;;;10.19;100.00;100003.03;5081642;28;20078;-75
2022/02/18 00:53:44;;;;;;;16.60;2.22;;;;;;;10.21;100.00;99992.47;5109791;28;20419;-75
2022/02/18 00:56:10;;;;;;;14.35;2.20;;;;;;;10.19;100.00;99995.53;5099779;28;20161;-75
2022/02/18 00:58:35;;;;;;;15.52;2.33;;;;;;;10.20;100.00;99996.38;5104525;28;20040;-75
2022/02/18 01:01:01;;;;;;;11.73;2.10;;;;;;;10.22;100.00;99985.78;5100424;28;20028;-75
2022/02/18 01:03:26;;;;;;;14.07;2.28;;;;;;;10.23;100.00;99987.44;5110386;28;20039;-74
2022/02/18 01:05:52;;;;;;;10.93;2.63;;;;;;;10.24;100.00;99984.34;5104690;28;20490;-75
2022/02/18 01:08:17;;;;;;;13.70;2.67;;;;;;;10.22;100.00;99969.13;5118180;28;20057;-75
2022/02/18 01:10:43;;;;;;;8.65;1.90;;;;;;;10.24;100.00;99973.25;5096539;28;20107;-74
2022/02/18 01:13:09;;;;;;;13.85;2.63;;;;;;;10.23;100.00;99954.13;5103052;28;20028;-75
2022/02/18 01:15:34;;;;;;;13.27;2.00;;;;;;;10.22;100.00;99956.09;5109764;28;20023;-75
2022/02/18 01:17:59;;;;;;;11.77;2.28;;;;;;;10.23;100.00;99959.69;5086433;28;20487;-74
2022/02/18 01:20:25;;;;;;;9.07;1.83;;;;;;;10.24;100.00;99944.66;5104116;28;20057;-75
2022/02/18 01:22:50;;;;;;;7.28;1.50;;;;;;;10.23;100.00;99937.47;5089226;28;20031;-75
2022/02/18 01:25:16;;;;;;;12.25;2.10;;;;;;;10.24;100.00;99933.56;5098114;28;20044;-75
2022/02/18 01:27:41;;;;;;;8.90;1.92;;;;;;;10.26;100.00;99937.69;5096286;28;20028;-75
2022/02/18 01:30:09;;;;;;;12.90;1.83;;;;;;;10.26;100.00;99934.09;5093852;28;20067;-75
2022/02/18 01:32:35;;;;;;;10.93;1.98;;;;;;;10.27;100.00;99927.44;5096080;28;20401;-76
2022/02/18 01:35:00;;;;;;;6.40;1.50;;;;;;;10.27;100.00;99927.44;5116438;28;20108;-74
2022/02/18 01:37:26;;;;;;;8.23;1.40;;;;;;;10.27;100.00;99919.94;5117024;27;20065;-74
2022/02/18 01:39:51;;;;;;;8.23;1.67;;;;;;;10.26;100.00;99926.59;5109146;27;20130;-75
2022/02/18 01:42:17;;;;;;;9.27;1.50;;;;;;;10.27;100.00;99916.34;5103136;27;20701;-75
2022/02/18 01:44:46;;;;;;;5.93;1.50;;;;;;;10.27;100.00;99921.88;5099814;28;20102;-75
2022/02/18 01:47:16;;;;;;;5.75;1.10;;;;;;;10.28;100.00;99920.78;5101254;28;20035;-74
2022/02/18 01:49:45;;;;;;;7.28;1.40;;;;;;;10.26;100.00;99920.22;5122903;27;20471;-74
2022/02/18 01:52:10;;;;;;;5.72;1.25;;;;;;;10.27;100.00;99916.34;5102032;27;20365;-73
2022/02/18 01:54:36;;;;;;;6.07;1.10;;;;;;;10.29;100.00;99916.84;5108922;27;20037;-74
2022/02/18 01:57:01;;;;;;;6.70;1.08;;;;;;;10.26;100.00;99914.66;5134691;27;20031;-74
2022/02/18 01:59:28;;;;;;;4.40;0.77;;;;;;;10.27;100.00;99889.41;5110718;27;20035;-74
2022/02/18 02:01:59;;;;;;;3.53;0.95;;;;;;;10.28;100.00;99895.81;5129969;27;20030;-74
2022/02/18 02:04:29;;;;;;;6.00;1.08;;;;;;;10.30;100.00;99893.50;5089582;28;20422;-73
2022/02/18 02:06:57;;;;;;;4.32;0.93;;;;;;;10.29;100.00;99878.81;5108964;27;20024;-74
2022/02/18 02:09:23;;;;;;;7.38;0.90;;;;;;;10.28;100.00;99885.50;5118860;27;20023;-74
2022/02/18 02:11:48;;;;;;;5.07;0.90;;;;;;;10.29;100.00;99880.78;5094389;27;20032;-74
2022/02/18 02:14:14;;;;;;;5.57;1.00;;;;;;;10.29;100.00;99866.91;5138166;27;20023;-74
2022/02/18 02:16:40;;;;;;;4.63;1.08;;;;;;;10.29;100.00;99869.69;5099709;27;20031;-74
2022/02/18 02:19:06;;;;;;;2.85;0.68;;;;;;;10.30;100.00;99865.75;5099541;27;20361;-74
2022/02/18 02:21:31;;;;;;;4.43;0.90;;;;;;;10.31;100.00;99867.44;5129238;27;20080;-74
2022/02/18 02:23:57;;;;;;;5.10;0.98;;;;;;;10.29;100.00;99858.56;5131961;27;20038;-73
2022/02/18 02:26:23;;;;;;;3.60;0.85;;;;;;;10.30;100.00;99860.22;5076253;27;20104;-74
2022/02/18 02:28:48;;;;;;;3.65;0.80;;;;;;;10.31;100.00;99852.69;5127391;27;20383;-74
2022/02/18 02:31:13;;;;;;;5.78;0.70;;;;;;;10.30;100.00;99846.34;5123643;27;20034;-74
2022/02/18 02:33:39;;;;;;;4.63;0.90;;;;;;;10.32;100.00;99840.50;5101118;28;20539;-74
2022/02/18 02:36:04;;;;;;;2.95;0.80;;;;;;;10.29;100.00;99828.06;5069147;28;20039;-73
2022/02/18 02:38:30;;;;;;;5.28;0.70;;;;;;;10.27;100.00;99831.13;5090500;28;20028;-74
2022/02/18 02:40:55;;;;;;;6.10;0.77;;;;;;;10.28;100.00;99824.47;5120450;27;20606;-73
2022/02/18 02:43:22;;;;;;;3.80;0.70;;;;;;;10.29;100.00;99822.50;5075813;27;20024;-73
2022/02/18 02:45:47;;;;;;;4.32;0.88;;;;;;;10.30;100.00;99826.91;5090140;27;20100;-74
2022/02/18 02:48:13;;;;;;;4.95;1.00;;;;;;;10.31;100.00;99813.84;5084492;28;20021;-74
2022/02/18 02:50:38;;;;;;;3.10;0.60;;;;;;;10.31;100.00;99811.06;5091896;28;20028;-74
2022/02/18 02:53:04;;;;;;;3.00;0.65;;;;;;;10.30;100.00;99799.16;5094137;28;20039;-74
2022/02/18 02:55:29;;;;;;;7.15;0.70;;;;;;;10.29;100.00;99797.53;5113366;28;20046;-74
2022/02/18 02:57:55;;;;;;;3.50;0.90;;;;;;;10.28;100.00;99795.88;5086664;28;20060;-74
2022/02/18 03:00:20;;;;;;;4.35;0.60;;;;;;;10.29;100.00;99790.00;5096768;28;20481;-74
2022/02/18 03:02:46;;;;;;;6.03;0.88;;;;;;;10.28;100.00;99784.78;5085884;28;20035;-73
2022/02/18 03:05:12;;;;;;;7.55;1.25;;;;;;;10.30;100.00;99785.28;5083233;28;20046;-74
2022/02/18 03:07:38;;;;;;;3.90;0.75;;;;;;;10.29;100.00;99780.88;5054498;28;20036;-73
2022/02/18 03:10:05;;;;;;;5.53;0.90;;;;;;;10.28;100.00;99771.72;5082873;28;20041;-74
2022/02/18 03:12:30;;;;;;;5.80;0.98;;;;;;;10.31;100.00;99775.84;5079511;28;20024;-74
2022/02/18 03:14:56;;;;;;;5.20;1.00;;;;;;;10.29;100.00;99770.59;5086528;28;20024;-74
2022/02/18 03:17:22;;;;;;;8.13;1.30;;;;;;;10.27;100.00;99766.47;5071325;28;20035;-74
2022/02/18 03:19:48;;;;;;;6.47;1.00;;;;;;;10.29;100.00;99761.44;5104574;27;20040;-73
2022/02/18 03:22:13;;;;;;;10.10;1.33;;;;;;;10.27;100.00;99755.38;5075715;28;20384;-74
2022/02/18 03:24:38;;;;;;;10.25;1.23;;;;;;;10.25;100.00;99752.91;5076164;28;20051;-74
2022/02/18 03:27:04;;;;;;;10.68;1.27;;;;;;;10.26;100.00;99757.31;5076622;28;20044;-74
2022/02/18 03:29:29;;;;;;;8.93;1.40;;;;;;;10.26;100.00;99746.19;5107838;28;20026;-74
2022/02/18 03:31:55;;;;;;;8.63;1.40;;;;;;;10.27;100.00;99741.50;5108541;28;20032;-74
2022/02/18 03:34:21;;;;;;;9.02;1.80;;;;;;;10.25;100.00;99735.41;5098722;28;20451;-74
2022/02/18 03:36:46;;;;;;;10.00;1.30;;;;;;;10.26;100.00;99737.06;5107405;27;20023;-74
2022/02/18 03:39:12;;;;;;;11.13;2.13;;;;;;;10.24;100.00;99734.56;5131529;27;20031;-74
2022/02/18 03:41:37;;;;;;;8.95;1.90;;;;;;;10.25;100.00;99724.28;5099851;27;20034;-74
2022/02/18 03:44:06;;;;;;;8.35;1.13;;;;;;;10.24;100.00;99733.75;5095188;28;20028;-74
2022/02/18 03:46:32;;;;;;;9.27;1.60;;;;;;;10.23;100.00;99732.13;5106515;28;20035;-74
2022/02/18 03:48:57;;;;;;;10.32;1.40;;;;;;;10.22;100.00;99720.22;5101521;28;20028;-74
2022/02/18 03:51:23;;;;;;;9.98;1.10;;;;;;;10.21;100.00;99717.75;5130168;27;20080;-73
2022/02/18 03:53:49;;;;;;;9.32;1.50;;;;;;;10.20;100.00;99716.91;5097305;28;20043;-74
2022/02/18 03:56:15;;;;;;;14.55;1.83;;;;;;;10.20;100.00;99711.38;5120758;27;20069;-74
2022/02/18 03:58:41;;;;;;;15.70;1.70;;;;;;;10.19;100.00;99708.91;5125528;27;20035;-74
2022/02/18 04:01:06;;;;;;;9.40;1.45;;;;;;;10.17;100.00;99684.25;5098565;27;20031;-74
2022/02/18 04:03:32;;;;;;;7.32;1.33;;;;;;;10.18;100.00;99694.22;5113646;27;20076;-74
2022/02/18 04:05:57;;;;;;;9.10;1.48;;;;;;;10.14;100.00;99695.97;5143843;27;20114;-74
2022/02/18 04:08:23;;;;;;;8.30;1.38;;;;;;;10.16;100.00;99681.78;5114530;27;20031;-74
2022/02/18 04:10:48;;;;;;;7.57;1.65;;;;;;;10.16;100.00;99682.59;5120073;28;20484;-74
2022/02/18 04:13:14;;;;;;;6.55;1.52;;;;;;;10.15;100.00;99674.59;5137340;27;20034;-74
2022/02/18 04:15:39;;;;;;;6.13;1.38;;;;;;;10.14;100.00;99672.94;5107117;28;20030;-74
2022/02/18 04:18:05;;;;;;;5.63;1.38;;;;;;;10.12;100.00;99659.38;5115143;28;20530;-74
2022/02/18 04:20:30;;;;;;;5.30;0.90;;;;;;;10.11;100.00;99657.72;5133594;27;20088;-74
2022/02/18 04:22:55;;;;;;;6.20;1.30;;;;;;;10.11;100.00;99651.38;5124947;27;20032;-74
2022/02/18 04:25:21;;;;;;;4.75;1.35;;;;;;;10.11;100.00;99648.59;5119792;27;20031;-74
2022/02/18 04:27:57;;;;;;;5.68;1.10;;;;;;;10.11;100.00;99645.81;5108656;28;20030;-74
2022/02/18 04:30:23;;;;;;;5.65;1.40;;;;;;;10.11;100.00;99645.81;5096773;27;20035;-75
2022/02/18 04:32:49;;;;;;;6.78;1.02;;;;;;;10.10;100.00;99641.41;5125841;27;20045;-75
2022/02/18 04:35:14;;;;;;;3.05;0.80;;;;;;;10.08;100.00;99636.16;5105669;28;20142;-74
2022/02/18 04:37:40;;;;;;;3.65;0.80;;;;;;;10.07;100.00;99629.78;5051555;28;20028;-74
2022/02/18 04:40:06;;;;;;;4.63;1.00;;;;;;;10.09;100.00;99631.44;5080914;28;20031;-74
2022/02/18 04:42:32;;;;;;;4.68;1.05;;;;;;;10.08;100.00;99630.59;5104757;28;20136;-75
2022/02/18 04:44:57;;;;;;;4.28;1.27;;;;;;;10.09;100.00;99620.34;5095929;28;20039;-74
2022/02/18 04:47:23;;;;;;;2.38;0.70;;;;;;;10.10;100.00;99600.59;5088277;28;20047;-74
2022/02/18 04:49:48;;;;;;;2.03;0.63;;;;;;;10.08;100.00;99580.66;5095163;28;20077;-74
2022/02/18 04:52:14;;;;;;;6.93;0.80;;;;;;;10.09;100.00;99598.97;5088426;28;20039;-74
2022/02/18 04:54:40;;;;;;;2.50;0.80;;;;;;;10.07;100.00;99585.41;5101070;28;20559;-74
2022/02/18 04:57:05;;;;;;;4.53;0.93;;;;;;;10.09;100.00;99578.75;5102874;28;20035;-73
2022/02/18 04:59:31;;;;;;;8.63;1.10;;;;;;;10.09;100.00;99587.06;5095624;28;20057;-74
2022/02/18 05:01:57;;;;;;;4.75;1.17;;;;;;;10.05;100.00;99593.22;5104165;28;20057;-74
2022/02/18 05:04:23;;;;;;;5.65;1.23;;;;;;;10.07;100.00;99584.59;5104814;28;20036;-73
2022/02/18 05:06:50;;;;;;;7.88;1.45;;;;;;;10.07;100.00;99582.63;5108015;28;20062;-74
2022/02/18 05:09:15;;;;;;;7.03;1.30;;;;;;;10.07;100.00;99576.28;5096695;28;20024;-74
2022/02/18 05:11:40;;;;;;;6.38;1.45;;;;;;;10.06;100.00;99578.22;5102666;28;20035;-74
2022/02/18 05:14:06;;;;;;;6.57;1.00;;;;;;;10.07;100.00;99568.75;5105808;28;20031;-74
2022/02/18 05:16:31;;;;;;;8.43;1.40;;;;;;;10.06;100.00;99566.31;5070313;28;20032;-74
2022/02/18 05:18:58;;;;;;;6.32;1.10;;;;;;;10.10;100.00;99544.31;5109403;28;20032;-73
2022/02/18 05:21:24;;;;;;;5.50;1.20;;;;;;;10.11;100.00;99548.72;5086736;28;20438;-74
2022/02/18 05:23:49;;;;;;;6.18;1.20;;;;;;;10.07;100.00;99549.34;5097568;28;20028;-74
2022/02/18 05:26:15;;;;;;;8.38;1.48;;;;;;;10.09;100.00;99548.22;5084371;28;20459;-74
2022/02/18 05:28:40;;;;;;;8.80;1.40;;;;;;;10.11;100.00;99545.94;5070978;28;20050;-74
2022/02/18 05:31:06;;;;;;;9.80;1.30;;;;;;;10.09;100.00;99546.25;5090211;28;20495;-74
2022/02/18 05:33:31;;;;;;;11.07;1.33;;;;;;;10.11;100.00;99540.38;5113392;28;20567;-74
2022/02/18 05:35:57;;;;;;;4.60;0.90;;;;;;;10.09;100.00;99540.72;5116431;28;20031;-74
2022/02/18 05:38:22;;;;;;;8.73;1.52;;;;;;;10.09;100.00;99529.63;5093101;28;20033;-74
2022/02/18 05:40:48;;;;;;;8.80;1.45;;;;;;;10.11;100.00;99530.09;5100683;28;20032;-74
2022/02/18 05:43:13;;;;;;;6.75;1.60;;;;;;;10.09;100.00;99520.47;5091914;28;20039;-74
2022/02/18 05:45:39;;;;;;;5.30;1.35;;;;;;;10.12;100.00;99525.41;5065164;28;20024;-74
2022/02/18 05:48:04;;;;;;;6.28;1.42;;;;;;;10.12;100.00;99505.97;5090642;28;20061;-74
2022/02/18 05:50:30;;;;;;;6.43;1.20;;;;;;;10.11;100.00;99519.00;5100041;28;20165;-75
2022/02/18 05:52:55;;;;;;;11.02;1.73;;;;;;;10.12;100.00;99504.03;5080971;28;20077;-74
2022/02/18 05:55:21;;;;;;;7.10;1.30;;;;;;;10.12;100.00;99503.22;5096503;28;20039;-74
2022/02/18 05:57:46;;;;;;;9.52;1.85;;;;;;;10.12;100.00;99487.38;5102213;28;20028;-74
2022/02/18 06:00:12;;;;;;;9.93;1.30;;;;;;;10.08;100.00;99497.44;5107911;28;20104;-74
2022/02/18 06:02:39;;;;;;;5.10;1.52;;;;;;;10.11;100.00;99482.94;5086049;28;20034;-74
2022/02/18 06:05:05;;;;;;;7.72;1.50;;;;;;;10.12;100.00;99487.38;5096966;28;20052;-74
2022/02/18 06:07:30;;;;;;;9.85;1.83;;;;;;;10.13;100.00;99479.88;5094360;28;20054;-74
2022/02/18 06:09:56;;;;;;;10.88;1.77;;;;;;;10.13;100.00;99477.91;5056159;28;20086;-74
2022/02/18 06:12:21;;;;;;;9.13;1.88;;;;;;;10.12;100.00;99475.47;5074246;28;20024;-73
2022/02/18 06:14:50;;;;;;;7.38;1.33;;;;;;;10.15;100.00;99474.81;5071736;28;20054;-74
2022/02/18 06:17:18;;;;;;;12.55;2.05;;;;;;;10.16;100.00;99457.84;5096121;28;20563;-74
2022/02/18 06:19:44;;;;;;;5.93;1.52;;;;;;;10.15;100.00;99452.63;5088742;28;20499;-74
2022/02/18 06:22:09;;;;;;;5.57;1.17;;;;;;;10.14;100.00;99442.66;5085083;28;20055;-74
2022/02/18 06:24:35;;;;;;;7.90;1.48;;;;;;;10.12;100.00;99437.44;5088854;28;20099;-74
2022/02/18 06:27:00;;;;;;;5.70;1.10;;;;;;;10.15;100.00;99422.13;5067297;28;20028;-74
2022/02/18 06:29:26;;;;;;;7.10;1.15;;;;;;;10.13;100.00;99421.59;5080961;28;20031;-74
2022/02/18 06:31:51;;;;;;;5.78;1.40;;;;;;;10.17;100.00;99422.59;5101133;28;20036;-74
2022/02/18 06:34:17;;;;;;;4.30;0.90;;;;;;;10.14;100.00;99414.91;5128012;27;20035;-74
2022/02/18 06:36:42;;;;;;;6.55;1.13;;;;;;;10.11;100.00;99412.78;5098078;28;20027;-73
2022/02/18 06:39:09;;;;;;;7.22;1.70;;;;;;;10.14;100.00;99406.59;5082042;27;20061;-74
2022/02/18 06:41:35;;;;;;;7.25;1.48;;;;;;;10.14;100.00;99401.03;5091058;27;20023;-74
2022/02/18 06:44:00;;;;;;;7.10;1.20;;;;;;;10.15;100.00;99419.34;5065099;28;20515;-73
2022/02/18 06:46:25;;;;;;;6.10;1.10;;;;;;;10.17;100.00;99412.34;5083777;28;20039;-74
2022/02/18 06:48:51;;;;;;;7.25;1.38;;;;;;;10.18;100.00;99413.16;5100917;28;20081;-73
2022/02/18 06:51:16;;;;;;;5.90;1.33;;;;;;;10.16;100.00;99398.78;5114580;27;20030;-74
2022/02/18 06:53:42;;;;;;;6.43;1.38;;;;;;;10.16;100.00;99398.78;5133772;27;20028;-75
2022/02/18 06:56:08;;;;;;;4.97;1.10;;;;;;;10.15;100.00;99397.16;5078529;28;20036;-74
2022/02/18 06:58:34;;;;;;;3.70;1.08;;;;;;;10.17;100.00;99394.84;5111110;28;20059;-74
2022/02/18 07:00:59;;;;;;;3.78;0.90;;;;;;;10.14;100.00;99401.03;5109975;28;20070;-73
2022/02/18 07:03:25;;;;;;;7.35;1.10;;;;;;;10.16;100.00;99415.41;5107023;27;20059;-74
2022/02/18 07:05:50;;;;;;;6.63;1.20;;;;;;;10.17;100.00;99403.16;5133673;27;20035;-74
2022/02/18 07:08:16;;;;;;;9.18;1.17;;;;;;;10.17;100.00;99411.50;5136481;27;20027;-74
2022/02/18 07:10:42;;;;;;;5.47;1.20;;;;;;;10.14;100.00;99401.03;5110915;28;20640;-74
2022/02/18 07:13:08;;;;;;;7.40;1.10;;;;;;;10.16;100.00;99404.31;5095291;27;20036;-74
2022/02/18 07:15:33;;;;;;;5.82;1.25;;;;;;;10.17;100.00;99389.28;5089176;28;20114;-73
2022/02/18 07:18:02;;;;;;;6.07;1.30;;;;;;;10.18;100.00;99390.97;5102960;28;20031;-73
2022/02/18 07:20:28;;;;;;;5.30;1.00;;;;;;;10.18;100.00;99400.09;5088737;27;20035;-72
2022/02/18 07:22:53;;;;;;;8.60;1.27;;;;;;;10.16;100.00;99407.91;5107843;28;20034;-71
2022/02/18 07:25:20;;;;;;;6.47;1.13;;;;;;;10.18;100.00;99407.59;5084004;27;20043;-71
2022/02/18 07:27:46;;;;;;;3.80;0.85;;;;;;;10.19;100.00;99403.69;5108388;28;20031;-73
2022/02/18 07:30:11;;;;;;;8.50;1.33;;;;;;;10.20;100.00;99394.25;5083458;28;20031;-71
2022/02/18 07:32:37;;;;;;;6.03;1.58;;;;;;;10.17;100.00;99395.69;5112542;27;20035;-72
2022/02/18 07:35:03;;;;;;;5.78;1.10;;;;;;;10.19;100.00;99384.25;5129158;27;20044;-72
2022/02/18 07:37:28;;;;;;;9.55;1.73;;;;;;;10.18;100.00;99388.19;5082748;27;20505;-72
2022/02/18 07:39:54;;;;;;;5.93;1.50;;;;;;;10.17;100.00;99390.13;5120193;27;20027;-71
2022/02/18 07:42:19;;;;;;;5.15;1.13;;;;;;;10.18;100.00;99385.41;5136028;27;20035;-71
2022/02/18 07:44:45;;;;;;;6.53;1.33;;;;;;;10.19;100.00;99395.34;5100561;27;20433;-71
2022/02/18 07:47:10;;;;;;;12.30;2.00;;;;;;;10.18;100.00;99396.50;5107287;27;20030;-71
2022/02/18 07:49:36;;;;;;;7.80;1.65;;;;;;;10.17;100.00;99378.19;5110209;28;20027;-71
2022/02/18 07:52:02;;;;;;;8.90;1.60;;;;;;;10.19;100.00;99387.03;5111104;28;20031;-71
2022/02/18 07:54:28;;;;;;;9.35;1.58;;;;;;;10.20;100.00;99389.50;5101536;28;20032;-71
2022/02/18 07:56:54;;;;;;;9.10;1.50;;;;;;;10.20;100.00;99392.28;5121880;27;20077;-72
2022/02/18 07:59:19;;;;;;;4.07;1.20;;;;;;;10.20;100.00;99395.06;5127167;27;20035;-72
2022/02/18 08:01:45;;;;;;;7.78;1.20;;;;;;;10.21;100.00;99391.13;5134594;27;20027;-72
2022/02/18 08:04:10;;;;;;;6.80;1.60;;;;;;;10.23;100.00;99390.81;5096784;28;20054;-71
2022/02/18 08:06:36;;;;;;;4.78;1.13;;;;;;;10.24;100.00;99395.22;5105525;28;20034;-71
2022/02/18 08:09:02;;;;;;;8.52;1.30;;;;;;;10.24;100.00;99389.66;5099717;28;20034;-71
2022/02/18 08:11:27;;;;;;;7.10;1.30;;;;;;;10.24;100.00;99381.34;5098830;28;20042;-71
2022/02/18 08:13:53;;;;;;;5.63;1.52;;;;;;;10.26;100.00;99387.41;5116834;28;20027;-71
2022/02/18 08:16:19;;;;;;;6.97;1.20;;;;;;;10.26;100.00;99390.19;5128451;27;20039;-72
2022/02/18 08:18:44;;;;;;;6.95;1.60;;;;;;;10.26;100.00;99423.47;5098112;28;20031;-71
2022/02/18 08:21:11;;;;;;;5.57;1.30;;;;;;;10.27;100.00;99448.16;5099476;28;20386;-72
2022/02/18 08:23:37;;;;;;;6.50;1.35;;;;;;;10.27;100.00;99456.47;5099500;28;20038;-72
2022/02/18 08:26:02;;;;;;;6.85;1.20;;;;;;;10.29;100.00;99464.50;5096937;28;20036;-72
2022/02/18 08:28:28;;;;;;;7.90;1.25;;;;;;;10.26;100.00;99454.00;5099553;28;20045;-72
2022/02/18 08:30:53;;;;;;;6.00;0.95;;;;;;;10.25;100.00;99453.19;5082707;28;20537;-72
2022/02/18 08:33:19;;;;;;;7.25;1.55;;;;;;;10.21;100.00;99460.50;5085036;28;20047;-72
2022/02/18 08:35:44;;;;;;;7.38;1.30;;;;;;;10.24;100.00;99462.63;5074935;28;20038;-72
2022/02/18 08:38:10;;;;;;;10.68;1.50;;;;;;;10.20;100.00;99472.75;5053275;28;20028;-72
2022/02/18 08:40:35;;;;;;;9.23;2.00;;;;;;;10.17;100.00;99492.81;5072719;28;20031;-71
2022/02/18 08:43:01;;;;;;;11.73;1.75;;;;;;;10.17;100.00;99490.03;5069138;28;20036;-72
2022/02/18 08:45:28;;;;;;;7.90;1.40;;;;;;;10.16;100.00;99520.84;5071535;28;20072;-73
2022/02/18 08:47:53;;;;;;;8.63;1.80;;;;;;;10.11;100.00;99507.91;5058255;28;20046;-73
2022/02/18 08:50:19;;;;;;;9.75;1.13;;;;;;;10.10;100.00;99519.34;5063438;28;20388;-72
2022/02/18 08:52:45;;;;;;;6.25;0.95;;;;;;;10.07;100.00;99524.38;5074493;28;20050;-73
2022/02/18 08:55:11;;;;;;;6.53;1.48;;;;;;;10.05;100.00;99532.19;5060739;28;20035;-73
2022/02/18 08:57:38;;;;;;;9.02;1.45;;;;;;;10.03;100.00;99533.66;5077217;28;20047;-73
2022/02/18 09:00:04;;;;;;;7.40;1.60;;;;;;;10.00;100.00;99537.88;5063304;28;20032;-73
2022/02/18 09:02:30;;;;;;;14.18;1.48;;;;;;;9.98;100.00;99534.59;5077480;28;20042;-73
2022/02/18 09:04:55;;;;;;;8.32;1.40;;;;;;;9.92;100.00;99524.75;5057636;28;20484;-72
2022/02/18 09:07:21;;;;;;;11.10;1.50;;;;;;;9.91;100.00;99534.19;5053798;28;20059;-72
2022/02/18 09:09:47;;;;;;;9.50;1.38;;;;;;;9.88;100.00;99539.56;5077183;28;20114;-72
2022/02/18 09:12:13;;;;;;;13.05;2.05;;;;;;;9.84;100.00;99542.16;5083989;28;20024;-73
2022/02/18 09:14:38;;;;;;;11.68;2.17;;;;;;;9.80;100.00;99538.34;5079552;28;20043;-73
2022/02/18 09:17:04;;;;;;;12.80;1.75;;;;;;;9.84;100.00;99544.91;5094536;28;20492;-73
2022/02/18 09:19:29;;;;;;;11.77;1.90;;;;;;;9.83;100.00;99549.66;5098417;28;20039;-73
2022/02/18 09:21:55;;;;;;;12.70;2.20;;;;;;;9.81;100.00;99576.03;5094369;28;20032;-73
2022/02/18 09:24:20;;;;;;;14.07;2.35;;;;;;;9.77;100.00;99559.19;5076672;28;20037;-73
2022/02/18 09:26:47;;;;;;;15.73;3.05;;;;;;;9.78;100.00;99557.25;5075289;28;20028;-73
2022/02/18 09:29:13;;;;;;;12.98;2.33;;;;;;;9.79;100.00;99567.22;5075715;28;20115;-73
2022/02/18 09:31:39;;;;;;;19.13;3.42;;;;;;;9.77;100.00;99572.25;5078862;28;20036;-73
2022/02/18 09:34:05;;;;;;;20.70;3.33;;;;;;;9.77;100.00;99577.78;5079886;28;20046;-73
2022/02/18 09:36:31;;;;;;;25.02;3.17;;;;;;;9.75;100.00;99582.81;5110752;28;20100;-73
2022/02/18 09:38:56;;;;;;;17.92;3.20;;;;;;;9.74;100.00;99576.44;5072952;28;20044;-73
2022/02/18 09:41:22;;;;;;;23.98;3.83;;;;;;;9.73;100.00;99594.22;5077111;28;20020;-73
2022/02/18 09:43:47;;;;;;;19.77;3.92;;;;;;;9.74;100.00;99606.13;5061261;28;20384;-73
2022/02/18 09:46:13;;;;;;;16.20;2.50;;;;;;;9.74;100.00;99587.53;5083866;28;20031;-73
2022/02/18 09:48:39;;;;;;;24.20;4.00;;;;;;;9.76;100.00;99601.13;5084397;28;20540;-73
2022/02/18 09:51:04;;;;;;;24.25;3.65;;;;;;;9.76;100.00;99603.88;5097876;28;20379;-73
2022/02/18 09:53:31;;;;;;;18.02;3.58;;;;;;;9.75;100.00;99613.31;5107578;28;20393;-73
2022/02/18 09:55:56;;;;;;;27.38;3.70;;;;;;;9.74;100.00;99625.53;5073474;28;20133;-73
2022/02/18 09:58:22;;;;;;;24.02;3.70;;;;;;;9.73;100.00;99623.91;5047693;28;20033;-73
2022/02/18 10:00:48;;;;;;;28.98;4.13;;;;;;;9.73;100.00;99623.91;5074872;28;20040;-73
2022/02/18 10:03:14;;;;;;;28.63;3.88;;;;;;;9.69;100.00;99622.88;5111284;28;20035;-73
2022/02/18 10:05:40;;;;;;;23.58;3.55;;;;;;;9.71;100.00;99609.53;5102943;28;20107;-73
2022/02/18 10:08:14;;;;;;;21.90;3.60;;;;;;;9.74;100.00;99620.00;5100096;28;20020;-73
2022/02/18 10:10:40;;;;;;;22.45;3.67;;;;;;;9.73;100.00;99619.19;5075782;28;20028;-73
2022/02/18 10:13:07;;;;;;;27.05;3.97;;;;;;;9.75;100.00;99624.41;5055617;28;20564;-73
2022/02/18 10:15:43;;;;;;;20.08;3.45;;;;;;;9.77;100.00;99634.06;5077082;28;20372;-73
2022/02/18 10:18:09;;;;;;;27.58;4.00;;;;;;;9.80;100.00;99647.28;5072781;28;20032;-73
2022/02/18 10:20:35;;;;;;;26.60;3.80;;;;;;;9.83;100.00;99645.88;5091932;28;20043;-73
2022/02/18 10:23:04;;;;;;;25.15;4.05;;;;;;;9.86;100.00;99653.56;5058236;28;20150;-73
2022/02/18 10:25:31;;;;;;;28.00;4.13;;;;;;;9.88;100.00;99665.16;5064010;28;20036;-73
2022/02/18 10:27:57;;;;;;;23.00;3.90;;;;;;;9.92;100.00;99660.66;5075949;28;20039;-73
2022/02/18 10:30:22;;;;;;;23.80;3.80;;;;;;;9.93;100.00;99651.19;5048561;28;20032;-73
2022/02/18 10:32:55;;;;;;;23.23;3.58;;;;;;;9.97;100.00;99656.94;5113419;27;20058;-73
2022/02/18 10:35:29;;;;;;;25.00;3.88;;;;;;;10.01;100.00;99667.09;5103991;27;20034;-73
2022/02/18 10:37:54;;;;;;;23.33;3.63;;;;;;;10.03;100.00;99659.31;5130243;27;20083;-73
2022/02/18 10:40:20;;;;;;;23.27;3.72;;;;;;;10.07;100.00;99667.81;5116748;27;20023;-73
2022/02/18 10:42:47;;;;;;;19.58;3.65;;;;;;;10.10;100.00;99658.06;5131031;27;20030;-73
2022/02/18 10:45:14;;;;;;;25.08;4.13;;;;;;;10.12;100.00;99664.13;5113907;28;20106;-73
2022/02/18 10:47:40;;;;;;;23.58;3.85;;;;;;;10.16;100.00;99668.72;5115403;27;20029;-73
2022/02/18 10:50:16;;;;;;;23.88;3.53;;;;;;;10.17;100.00;99675.94;5098289;28;20483;-73
2022/02/18 10:52:41;;;;;;;27.25;3.97;;;;;;;10.16;100.00;99659.56;5112770;28;20031;-73
2022/02/18 10:55:07;;;;;;;21.42;3.88;;;;;;;10.21;100.00;99674.16;5068848;27;20028;-73
2022/02/18 10:57:33;;;;;;;23.00;3.83;;;;;;;10.25;100.00;99679.91;5097415;28;20035;-73
2022/02/18 11:00:00;;;;;;;25.40;4.07;;;;;;;10.26;100.00;99678.78;5092676;27;20031;-74
2022/02/18 11:02:45;;;;;;;22.80;3.72;;;;;;;10.28;100.00;99684.88;5065422;28;20062;-73
2022/02/18 11:05:20;;;;;;;22.83;3.58;;;;;;;10.26;100.00;99699.03;5084282;28;20032;-73
2022/02/18 11:07:45;;;;;;;25.00;3.85;;;;;;;10.29;100.00;99695.66;5097907;28;20040;-73
2022/02/18 11:10:33;;;;;;;27.13;3.50;;;;;;;10.32;100.00;99696.97;5074848;27;20030;-72
2022/02/18 11:12:59;;;;;;;33.00;3.97;;;;;;;10.29;100.00;99703.16;5085933;28;20059;-73
2022/02/18 11:15:24;;;;;;;24.35;4.05;;;;;;;10.34;100.00;99710.56;5070513;27;20055;-73